sensor_id;sensor_type;location;lat;lon;timestamp;pressure;altitude;pressure_sealevel;temperature;humidity
9187;BME280;7273;48.902;9.410;2024-02-21T00:01:37;99049.34;;;7.43;73.89
9187;BME280;7273;48.902;9.410;2024-02-21T00:04:03;99052.81;;;7.43;74.18
9187;BME280;7273;48.902;9.410;2024-02-21T00:06:28;99052.03;;;7.43;73.83
9187;BME280;7273;48.902;9.410;2024-02-21T00:08:53;99049.22;;;7.38;73.82
9187;BME280;7273;48.902;9.410;2024-02-21T00:11:19;99046.03;;;7.41;74.10
9187;BME280;7273;48.902;9.410;2024-02-21T00:13:44;99045.22;;;7.40;73.50
9187;BME280;7273;48.902;9.410;2024-02-21T00:16:10;99041.94;;;7.38;74.09
9187;BME280;7273;48.902;9.410;2024-02-21T00:18:36;99042.88;;;7.44;73.90
9187;BME280;7273;48.902;9.410;2024-02-21T00:21:02;99036.69;;;7.43;73.92
9187;BME280;7273;48.902;9.410;2024-02-21T00:23:28;99031.06;;;7.45;73.87
9187;BME280;7273;48.902;9.410;2024-02-21T00:25:54;99028.38;;;7.45;74.09
9187;BME280;7273;48.902;9.410;2024-02-21T00:28:20;99018.66;;;7.44;74.26
9187;BME280;7273;48.902;9.410;2024-02-21T00:30:46;99011.06;;;7.41;73.40
9187;BME280;7273;48.902;9.410;2024-02-21T00:33:14;99002.41;;;7.39;74.23
9187;BME280;7273;48.902;9.410;2024-02-21T00:35:39;99001.94;;;7.42;73.79
9187;BME280;7273;48.902;9.410;2024-02-21T00:38:05;98999.00;;;7.43;73.94
9187;BME280;7273;48.902;9.410;2024-02-21T00:40:30;98998.44;;;7.41;74.22
9187;BME280;7273;48.902;9.410;2024-02-21T00:42:56;98990.94;;;7.43;73.92
9187;BME280;7273;48.902;9.410;2024-02-21T00:45:22;98994.91;;;7.41;74.32
9187;BME280;7273;48.902;9.410;2024-02-21T00:47:48;98995.16;;;7.39;73.86
9187;BME280;7273;48.902;9.410;2024-02-21T00:50:14;98992.22;;;7.41;74.51
9187;BME280;7273;48.902;9.410;2024-02-21T00:52:39;98988.47;;;7.42;73.87
9187;BME280;7273;48.902;9.410;2024-02-21T00:55:05;98990.94;;;7.43;74.26
9187;BME280;7273;48.902;9.410;2024-02-21T00:57:31;98985.53;;;7.43;73.94
9187;BME280;7273;48.902;9.410;2024-02-21T00:59:57;98987.69;;;7.41;73.71
9187;BME280;7273;48.902;9.410;2024-02-21T01:02:23;98988.22;;;7.43;73.97
9187;BME280;7273;48.902;9.410;2024-02-21T01:04:48;98982.28;;;7.41;73.79
9187;BME280;7273;48.902;9.410;2024-02-21T01:07:14;98983.31;;;7.40;73.96
9187;BME280;7273;48.902;9.410;2024-02-21T01:09:40;98977.03;;;7.35;73.84
9187;BME280;7273;48.902;9.410;2024-02-21T01:12:06;98977.16;;;7.40;73.73
9187;BME280;7273;48.902;9.410;2024-02-21T01:14:31;98978.78;;;7.41;73.92
9187;BME280;7273;48.902;9.410;2024-02-21T01:16:57;98967.78;;;7.42;73.91
9187;BME280;7273;48.902;9.410;2024-02-21T01:19:22;98969.06;;;7.40;73.72
9187;BME280;7273;48.902;9.410;2024-02-21T01:21:48;98955.38;;;7.41;73.87
9187;BME280;7273;48.902;9.410;2024-02-21T01:24:14;98951.63;;;7.42;73.65
9187;BME280;7273;48.902;9.410;2024-02-21T01:26:40;98950.00;;;7.41;73.64
9187;BME280;7273;48.902;9.410;2024-02-21T01:29:06;98948.59;;;7.39;73.38
9187;BME280;7273;48.902;9.410;2024-02-21T01:31:31;98944.25;;;7.38;73.80
9187;BME280;7273;48.902;9.410;2024-02-21T01:33:57;98943.44;;;7.37;73.81
9187;BME280;7273;48.902;9.410;2024-02-21T01:36:23;98944.16;;;7.33;73.58
9187;BME280;7273;48.902;9.410;2024-02-21T01:38:49;98936.88;;;7.33;73.95
9187;BME280;7273;48.902;9.410;2024-02-21T01:41:14;98933.38;;;7.33;73.92
9187;BME280;7273;48.902;9.410;2024-02-21T01:43:41;98932.56;;;7.32;73.73
9187;BME280;7273;48.902;9.410;2024-02-21T01:46:07;98928.59;;;7.35;73.98
9187;BME280;7273;48.902;9.410;2024-02-21T01:48:34;98923.22;;;7.35;72.99
9187;BME280;7273;48.902;9.410;2024-02-21T01:51:00;98922.75;;;7.38;73.25
9187;BME280;7273;48.902;9.410;2024-02-21T01:53:31;98916.28;;;7.39;73.21
9187;BME280;7273;48.902;9.410;2024-02-21T01:55:58;98917.34;;;7.38;73.56
9187;BME280;7273;48.902;9.410;2024-02-21T01:58:24;98915.03;;;7.41;73.69
9187;BME280;7273;48.902;9.410;2024-02-21T02:00:50;98899.13;;;7.40;73.19
9187;BME280;7273;48.902;9.410;2024-02-21T02:03:17;98899.13;;;7.40;73.56
9187;BME280;7273;48.902;9.410;2024-02-21T02:05:46;98896.41;;;7.40;73.76
9187;BME280;7273;48.902;9.410;2024-02-21T02:08:16;98900.75;;;7.41;73.98
9187;BME280;7273;48.902;9.410;2024-02-21T02:10:43;98893.72;;;7.40;73.66
9187;BME280;7273;48.902;9.410;2024-02-21T02:13:09;98889.97;;;7.41;73.63
9187;BME280;7273;48.902;9.410;2024-02-21T02:15:42;98886.47;;;7.40;73.57
9187;BME280;7273;48.902;9.410;2024-02-21T02:18:08;98890.22;;;7.39;73.45
9187;BME280;7273;48.902;9.410;2024-02-21T02:20:35;98879.09;;;7.36;73.52
9187;BME280;7273;48.902;9.410;2024-02-21T02:23:08;98874.31;;;7.38;73.85
9187;BME280;7273;48.902;9.410;2024-02-21T02:25:36;98868.94;;;7.38;73.27
9187;BME280;7273;48.902;9.410;2024-02-21T02:28:03;98863.53;;;7.38;73.62
9187;BME280;7273;48.902;9.410;2024-02-21T02:30:35;98858.84;;;7.33;74.03
9187;BME280;7273;48.902;9.410;2024-02-21T02:33:04;98853.69;;;7.32;73.26
9187;BME280;7273;48.902;9.410;2024-02-21T02:35:31;98844.47;;;7.28;73.69
9187;BME280;7273;48.902;9.410;2024-02-21T02:37:56;98850.78;;;7.33;73.56
9187;BME280;7273;48.902;9.410;2024-02-21T02:40:22;98849.97;;;7.33;73.70
9187;BME280;7273;48.902;9.410;2024-02-21T02:42:49;98844.84;;;7.31;73.78
9187;BME280;7273;48.902;9.410;2024-02-21T02:45:18;98846.47;;;7.32;73.80
9187;BME280;7273;48.902;9.410;2024-02-21T02:47:44;98837.81;;;7.30;73.68
9187;BME280;7273;48.902;9.410;2024-02-21T02:50:11;98829.72;;;7.30;73.75
9187;BME280;7273;48.902;9.410;2024-02-21T02:52:37;98825.66;;;7.28;73.37
9187;BME280;7273;48.902;9.410;2024-02-21T02:55:04;98830.78;;;7.29;73.21
9187;BME280;7273;48.902;9.410;2024-02-21T02:57:30;98821.91;;;7.29;73.35
9187;BME280;7273;48.902;9.410;2024-02-21T02:59:56;98827.75;;;7.26;73.87
9187;BME280;7273;48.902;9.410;2024-02-21T03:02:21;98828.34;;;7.28;74.09
9187;BME280;7273;48.902;9.410;2024-02-21T03:04:47;98817.22;;;7.24;74.01
9187;BME280;7273;48.902;9.410;2024-02-21T03:07:14;98810.47;;;7.22;74.01
9187;BME280;7273;48.902;9.410;2024-02-21T03:09:39;98817.72;;;7.21;74.52
9187;BME280;7273;48.902;9.410;2024-02-21T03:12:06;98818.88;;;7.14;74.54
9187;BME280;7273;48.902;9.410;2024-02-21T03:14:32;98822.03;;;7.11;74.82
9187;BME280;7273;48.902;9.410;2024-02-21T03:16:58;98833.28;;;7.08;74.67
9187;BME280;7273;48.902;9.410;2024-02-21T03:19:24;98822.03;;;7.11;74.58
9187;BME280;7273;48.902;9.410;2024-02-21T03:21:50;98822.28;;;7.09;74.25
9187;BME280;7273;48.902;9.410;2024-02-21T03:24:18;98818.66;;;7.15;74.38
9187;BME280;7273;48.902;9.410;2024-02-21T03:26:43;98835.38;;;7.17;74.35
9187;BME280;7273;48.902;9.410;2024-02-21T03:29:10;98834.56;;;7.17;74.64
9187;BME280;7273;48.902;9.410;2024-02-21T03:31:36;98821.69;;;7.19;74.95
9187;BME280;7273;48.902;9.410;2024-02-21T03:34:02;98817.59;;;7.16;75.36
9187;BME280;7273;48.902;9.410;2024-02-21T03:36:27;98811.75;;;7.19;75.07
9187;BME280;7273;48.902;9.410;2024-02-21T03:38:54;98808.56;;;7.22;75.53
9187;BME280;7273;48.902;9.410;2024-02-21T03:41:19;98808.13;;;7.14;75.42
9187;BME280;7273;48.902;9.410;2024-02-21T03:43:45;98794.91;;;7.12;75.18
9187;BME280;7273;48.902;9.410;2024-02-21T03:46:10;98796.09;;;7.16;75.49
9187;BME280;7273;48.902;9.410;2024-02-21T03:48:35;98795.25;;;7.16;75.26
9187;BME280;7273;48.902;9.410;2024-02-21T03:51:02;98784.84;;;7.19;75.50
9187;BME280;7273;48.902;9.410;2024-02-21T03:53:27;98793.88;;;7.13;74.91
9187;BME280;7273;48.902;9.410;2024-02-21T03:55:53;98791.19;;;7.13;75.43
9187;BME280;7273;48.902;9.410;2024-02-21T03:58:18;98787.06;;;7.11;75.59
9187;BME280;7273;48.902;9.410;2024-02-21T04:00:44;98782.53;;;7.11;75.44
9187;BME280;7273;48.902;9.410;2024-02-21T04:03:09;98780.31;;;7.08;75.63
9187;BME280;7273;48.902;9.410;2024-02-21T04:05:34;98791.31;;;7.07;75.42
9187;BME280;7273;48.902;9.410;2024-02-21T04:08:04;98779.97;;;7.05;75.07
9187;BME280;7273;48.902;9.410;2024-02-21T04:10:30;98782.41;;;7.06;75.81
9187;BME280;7273;48.902;9.410;2024-02-21T04:12:55;98764.41;;;7.07;75.35
9187;BME280;7273;48.902;9.410;2024-02-21T04:15:20;98769.91;;;7.12;75.41
9187;BME280;7273;48.902;9.410;2024-02-21T04:17:46;98768.50;;;7.09;75.63
9187;BME280;7273;48.902;9.410;2024-02-21T04:20:15;98769.31;;;7.10;75.41
9187;BME280;7273;48.902;9.410;2024-02-21T04:22:43;98770.28;;;7.04;75.67
9187;BME280;7273;48.902;9.410;2024-02-21T04:25:09;98761.50;;;7.08;75.65
9187;BME280;7273;48.902;9.410;2024-02-21T04:27:34;98760.19;;;7.11;75.69
9187;BME280;7273;48.902;9.410;2024-02-21T04:30:00;98737.75;;;7.05;75.56
9187;BME280;7273;48.902;9.410;2024-02-21T04:32:25;98736.81;;;7.00;75.51
9187;BME280;7273;48.902;9.410;2024-02-21T04:34:53;98745.25;;;7.03;75.50
9187;BME280;7273;48.902;9.410;2024-02-21T04:37:18;98745.59;;;7.07;76.14
9187;BME280;7273;48.902;9.410;2024-02-21T04:39:44;98746.63;;;7.06;75.90
9187;BME280;7273;48.902;9.410;2024-02-21T04:42:09;98745.47;;;7.02;75.69
9187;BME280;7273;48.902;9.410;2024-02-21T04:44:35;98739.41;;;6.95;75.89
9187;BME280;7273;48.902;9.410;2024-02-21T04:47:00;98729.59;;;7.00;75.57
9187;BME280;7273;48.902;9.410;2024-02-21T04:49:26;98727.69;;;7.01;75.38
9187;BME280;7273;48.902;9.410;2024-02-21T04:51:51;98726.56;;;6.97;74.83
9187;BME280;7273;48.902;9.410;2024-02-21T04:54:17;98732.28;;;7.00;75.10
9187;BME280;7273;48.902;9.410;2024-02-21T04:56:42;98727.81;;;6.94;75.24
9187;BME280;7273;48.902;9.410;2024-02-21T04:59:07;98733.91;;;6.90;75.12
9187;BME280;7273;48.902;9.410;2024-02-21T05:01:33;98739.19;;;6.84;75.18
9187;BME280;7273;48.902;9.410;2024-02-21T05:03:58;98742.94;;;6.83;75.81
9187;BME280;7273;48.902;9.410;2024-02-21T05:06:23;98752.50;;;6.79;75.30
9187;BME280;7273;48.902;9.410;2024-02-21T05:08:49;98754.84;;;6.76;75.41
9187;BME280;7273;48.902;9.410;2024-02-21T05:11:14;98751.34;;;6.75;75.78
9187;BME280;7273;48.902;9.410;2024-02-21T05:13:40;98742.94;;;6.72;76.01
9187;BME280;7273;48.902;9.410;2024-02-21T05:16:05;98746.09;;;6.69;75.84
9187;BME280;7273;48.902;9.410;2024-02-21T05:18:31;98737.47;;;6.67;75.71
9187;BME280;7273;48.902;9.410;2024-02-21T05:20:57;98741.44;;;6.64;75.79
9187;BME280;7273;48.902;9.410;2024-02-21T05:23:22;98736.75;;;6.60;76.16
9187;BME280;7273;48.902;9.410;2024-02-21T05:25:48;98739.19;;;6.61;75.51
9187;BME280;7273;48.902;9.410;2024-02-21T05:28:13;98723.19;;;6.55;75.95
9187;BME280;7273;48.902;9.410;2024-02-21T05:30:38;98712.94;;;6.52;75.87
9187;BME280;7273;48.902;9.410;2024-02-21T05:33:05;98693.75;;;6.48;75.54
9187;BME280;7273;48.902;9.410;2024-02-21T05:35:30;98685.72;;;6.37;75.80
9187;BME280;7273;48.902;9.410;2024-02-21T05:37:56;98692.38;;;6.34;76.08
9187;BME280;7273;48.902;9.410;2024-02-21T05:40:21;98692.25;;;6.29;76.35
9187;BME280;7273;48.902;9.410;2024-02-21T05:42:47;98679.91;;;6.28;76.58
9187;BME280;7273;48.902;9.410;2024-02-21T05:45:12;98684.91;;;6.36;76.47
9187;BME280;7273;48.902;9.410;2024-02-21T05:47:38;98689.56;;;6.29;76.44
9187;BME280;7273;48.902;9.410;2024-02-21T05:50:04;98693.22;;;6.35;76.34
9187;BME280;7273;48.902;9.410;2024-02-21T05:52:30;98681.88;;;6.21;76.05
9187;BME280;7273;48.902;9.410;2024-02-21T05:54:55;98682.91;;;6.20;75.95
9187;BME280;7273;48.902;9.410;2024-02-21T05:57:21;98681.41;;;6.13;75.93
9187;BME280;7273;48.902;9.410;2024-02-21T05:59:46;98669.59;;;6.14;76.38
9187;BME280;7273;48.902;9.410;2024-02-21T06:02:12;98667.03;;;6.07;75.87
9187;BME280;7273;48.902;9.410;2024-02-21T06:04:38;98665.75;;;6.10;76.46
9187;BME280;7273;48.902;9.410;2024-02-21T06:07:04;98663.66;;;6.12;75.84
9187;BME280;7273;48.902;9.410;2024-02-21T06:09:30;98664.22;;;6.14;75.78
9187;BME280;7273;48.902;9.410;2024-02-21T06:11:55;98665.88;;;6.15;75.14
9187;BME280;7273;48.902;9.410;2024-02-21T06:14:21;98671.00;;;6.16;75.16
9187;BME280;7273;48.902;9.410;2024-02-21T06:16:46;98673.09;;;6.14;75.46
9187;BME280;7273;48.902;9.410;2024-02-21T06:19:11;98670.88;;;6.11;75.17
9187;BME280;7273;48.902;9.410;2024-02-21T06:21:37;98678.47;;;6.03;74.82
9187;BME280;7273;48.902;9.410;2024-02-21T06:24:03;98669.03;;;6.00;75.36
9187;BME280;7273;48.902;9.410;2024-02-21T06:26:28;98676.38;;;6.05;75.86
9187;BME280;7273;48.902;9.410;2024-02-21T06:28:54;98664.34;;;6.07;75.06
9187;BME280;7273;48.902;9.410;2024-02-21T06:31:19;98665.53;;;6.11;75.48
9187;BME280;7273;48.902;9.410;2024-02-21T06:33:45;98664.13;;;6.09;75.27
9187;BME280;7273;48.902;9.410;2024-02-21T06:36:10;98669.03;;;6.12;75.03
9187;BME280;7273;48.902;9.410;2024-02-21T06:38:36;98668.44;;;6.10;75.45
9187;BME280;7273;48.902;9.410;2024-02-21T06:41:01;98668.19;;;6.11;74.77
9187;BME280;7273;48.902;9.410;2024-02-21T06:43:28;98672.75;;;6.11;75.04
9187;BME280;7273;48.902;9.410;2024-02-21T06:45:53;98671.84;;;6.17;75.23
9187;BME280;7273;48.902;9.410;2024-02-21T06:48:20;98674.28;;;6.18;74.73
9187;BME280;7273;48.902;9.410;2024-02-21T06:50:45;98679.41;;;6.20;74.67
9187;BME280;7273;48.902;9.410;2024-02-21T06:53:11;98676.03;;;6.13;74.42
9187;BME280;7273;48.902;9.410;2024-02-21T06:55:36;98668.09;;;6.18;74.69
9187;BME280;7273;48.902;9.410;2024-02-21T06:58:01;98660.97;;;6.23;74.81
9187;BME280;7273;48.902;9.410;2024-02-21T07:00:28;98664.81;;;6.27;74.38
9187;BME280;7273;48.902;9.410;2024-02-21T07:02:54;98666.69;;;6.27;74.45
9187;BME280;7273;48.902;9.410;2024-02-21T07:05:19;98658.41;;;6.28;74.92
9187;BME280;7273;48.902;9.410;2024-02-21T07:07:45;98666.59;;;6.33;74.93
9187;BME280;7273;48.902;9.410;2024-02-21T07:10:10;98650.47;;;6.33;75.37
9187;BME280;7273;48.902;9.410;2024-02-21T07:12:36;98662.84;;;6.34;75.46
9187;BME280;7273;48.902;9.410;2024-02-21T07:15:04;98653.25;;;6.38;75.01
9187;BME280;7273;48.902;9.410;2024-02-21T07:17:30;98654.66;;;6.41;75.42
9187;BME280;7273;48.902;9.410;2024-02-21T07:19:56;98654.66;;;6.41;75.22
9187;BME280;7273;48.902;9.410;2024-02-21T07:22:25;98659.78;;;6.42;75.45
9187;BME280;7273;48.902;9.410;2024-02-21T07:24:50;98645.41;;;6.48;75.40
9187;BME280;7273;48.902;9.410;2024-02-21T07:27:15;98639.56;;;6.51;75.63
9187;BME280;7273;48.902;9.410;2024-02-21T07:29:41;98651.13;;;6.52;75.32
9187;BME280;7273;48.902;9.410;2024-02-21T07:32:06;98654.75;;;6.57;75.35
9187;BME280;7273;48.902;9.410;2024-02-21T07:34:32;98652.66;;;6.59;75.48
9187;BME280;7273;48.902;9.410;2024-02-21T07:36:57;98645.50;;;6.65;75.60
9187;BME280;7273;48.902;9.410;2024-02-21T07:39:23;98640.81;;;6.72;75.77
9187;BME280;7273;48.902;9.410;2024-02-21T07:41:49;98646.53;;;6.75;75.26
9187;BME280;7273;48.902;9.410;2024-02-21T07:44:16;98647.06;;;6.89;75.21
9187;BME280;7273;48.902;9.410;2024-02-21T07:46:42;98641.88;;;6.99;74.57
9187;BME280;7273;48.902;9.410;2024-02-21T07:49:07;98643.41;;;7.07;75.00
9187;BME280;7273;48.902;9.410;2024-02-21T07:51:32;98623.38;;;7.14;74.53
9187;BME280;7273;48.902;9.410;2024-02-21T07:53:58;98619.25;;;7.23;74.58
9187;BME280;7273;48.902;9.410;2024-02-21T07:56:23;98605.16;;;7.33;74.16
9187;BME280;7273;48.902;9.410;2024-02-21T07:58:48;98603.13;;;7.40;74.10
9187;BME280;7273;48.902;9.410;2024-02-21T08:01:20;98599.97;;;7.43;73.38
9187;BME280;7273;48.902;9.410;2024-02-21T08:03:46;98589.84;;;7.50;73.47
9187;BME280;7273;48.902;9.410;2024-02-21T08:06:12;98594.25;;;7.56;73.67
9187;BME280;7273;48.902;9.410;2024-02-21T08:08:38;98592.94;;;7.58;73.10
9187;BME280;7273;48.902;9.410;2024-02-21T08:11:04;98600.59;;;7.66;73.37
9187;BME280;7273;48.902;9.410;2024-02-21T08:13:30;98601.75;;;7.70;72.88
9187;BME280;7273;48.902;9.410;2024-02-21T08:15:55;98598.41;;;7.80;73.08
9187;BME280;7273;48.902;9.410;2024-02-21T08:18:22;98597.66;;;7.84;73.08
9187;BME280;7273;48.902;9.410;2024-02-21T08:20:48;98595.56;;;7.86;72.73
9187;BME280;7273;48.902;9.410;2024-02-21T08:23:16;98597.91;;;7.99;72.91
9187;BME280;7273;48.902;9.410;2024-02-21T08:25:42;98586.88;;;8.01;72.13
9187;BME280;7273;48.902;9.410;2024-02-21T08:28:07;98585.09;;;8.06;71.85
9187;BME280;7273;48.902;9.410;2024-02-21T08:30:33;98585.50;;;8.15;72.55
9187;BME280;7273;48.902;9.410;2024-02-21T08:32:59;98588.47;;;8.18;71.09
9187;BME280;7273;48.902;9.410;2024-02-21T08:35:24;98580.56;;;8.29;72.28
9187;BME280;7273;48.902;9.410;2024-02-21T08:37:50;98585.84;;;8.40;72.12
9187;BME280;7273;48.902;9.410;2024-02-21T08:40:15;98586.25;;;8.49;72.06
9187;BME280;7273;48.902;9.410;2024-02-21T08:42:46;98588.25;;;8.58;72.10
9187;BME280;7273;48.902;9.410;2024-02-21T08:45:12;98575.97;;;8.67;72.47
9187;BME280;7273;48.902;9.410;2024-02-21T08:47:40;98576.56;;;8.74;71.92
9187;BME280;7273;48.902;9.410;2024-02-21T08:50:06;98572.63;;;8.82;71.20
9187;BME280;7273;48.902;9.410;2024-02-21T08:52:31;98571.47;;;8.99;72.07
9187;BME280;7273;48.902;9.410;2024-02-21T08:54:57;98562.34;;;9.05;72.46
9187;BME280;7273;48.902;9.410;2024-02-21T08:57:22;98562.97;;;9.12;72.94
9187;BME280;7273;48.902;9.410;2024-02-21T08:59:48;98568.16;;;9.19;72.46
9187;BME280;7273;48.902;9.410;2024-02-21T09:02:14;98557.72;;;9.27;72.42
9187;BME280;7273;48.902;9.410;2024-02-21T09:04:41;98557.78;;;9.32;72.54
9187;BME280;7273;48.902;9.410;2024-02-21T09:07:06;98551.03;;;9.35;73.10
9187;BME280;7273;48.902;9.410;2024-02-21T09:09:32;98551.66;;;9.42;72.47
9187;BME280;7273;48.902;9.410;2024-02-21T09:11:58;98548.16;;;9.46;72.33
9187;BME280;7273;48.902;9.410;2024-02-21T09:14:34;98540.06;;;9.46;72.81
9187;BME280;7273;48.902;9.410;2024-02-21T09:16:59;98536.53;;;9.41;71.35
9187;BME280;7273;48.902;9.410;2024-02-21T09:19:25;98533.84;;;9.46;72.33
9187;BME280;7273;48.902;9.410;2024-02-21T09:21:50;98525.53;;;9.47;71.50
9187;BME280;7273;48.902;9.410;2024-02-21T09:24:17;98531.13;;;9.41;70.71
9187;BME280;7273;48.902;9.410;2024-02-21T09:26:43;98526.78;;;9.40;70.44
9187;BME280;7273;48.902;9.410;2024-02-21T09:29:08;98540.81;;;9.37;69.69
9187;BME280;7273;48.902;9.410;2024-02-21T09:31:33;98534.88;;;9.40;70.53
9187;BME280;7273;48.902;9.410;2024-02-21T09:33:59;98534.16;;;9.49;71.64
9187;BME280;7273;48.902;9.410;2024-02-21T09:36:24;98533.84;;;9.46;70.68
9187;BME280;7273;48.902;9.410;2024-02-21T09:38:49;98531.19;;;9.51;70.79
9187;BME280;7273;48.902;9.410;2024-02-21T09:41:21;98526.13;;;9.60;71.69
9187;BME280;7273;48.902;9.410;2024-02-21T09:43:50;98524.34;;;9.70;71.76
9187;BME280;7273;48.902;9.410;2024-02-21T09:46:19;98521.72;;;9.80;71.75
9187;BME280;7273;48.902;9.410;2024-02-21T09:48:58;98522.56;;;9.91;70.95
9187;BME280;7273;48.902;9.410;2024-02-21T09:51:30;98527.47;;;9.99;70.85
9187;BME280;7273;48.902;9.410;2024-02-21T09:53:57;98520.50;;;10.03;70.18
9187;BME280;7273;48.902;9.410;2024-02-21T09:56:23;98512.41;;;10.03;69.82
9187;BME280;7273;48.902;9.410;2024-02-21T09:58:48;98508.13;;;10.12;70.25
9187;BME280;7273;48.902;9.410;2024-02-21T10:01:14;98505.13;;;10.08;70.78
9187;BME280;7273;48.902;9.410;2024-02-21T10:03:39;98499.56;;;10.25;71.35
9187;BME280;7273;48.902;9.410;2024-02-21T10:06:05;98502.31;;;10.40;71.34
9187;BME280;7273;48.902;9.410;2024-02-21T10:08:30;98500.69;;;10.34;70.46
9187;BME280;7273;48.902;9.410;2024-02-21T10:10:55;98494.16;;;10.30;69.55
9187;BME280;7273;48.902;9.410;2024-02-21T10:16:00;98491.75;;;10.33;68.99
9187;BME280;7273;48.902;9.410;2024-02-21T10:18:26;98496.44;;;10.53;70.48
9187;BME280;7273;48.902;9.410;2024-02-21T10:21:03;98487.22;;;10.49;69.83
9187;BME280;7273;48.902;9.410;2024-02-21T10:23:29;98491.53;;;10.45;68.54
9187;BME280;7273;48.902;9.410;2024-02-21T10:26:04;98483.44;;;10.50;68.92
9187;BME280;7273;48.902;9.410;2024-02-21T10:28:30;98474.78;;;10.53;69.48
9187;BME280;7273;48.902;9.410;2024-02-21T10:30:55;98469.16;;;10.64;70.24
9187;BME280;7273;48.902;9.410;2024-02-21T10:33:21;98471.34;;;10.77;70.85
9187;BME280;7273;48.902;9.410;2024-02-21T10:35:47;98461.31;;;10.68;69.18
9187;BME280;7273;48.902;9.410;2024-02-21T10:38:15;98456.47;;;10.75;69.37
9187;BME280;7273;48.902;9.410;2024-02-21T10:40:40;98456.72;;;10.68;67.82
9187;BME280;7273;48.902;9.410;2024-02-21T10:43:10;98455.38;;;10.76;69.52
9187;BME280;7273;48.902;9.410;2024-02-21T10:45:37;98455.41;;;10.86;69.61
9187;BME280;7273;48.902;9.410;2024-02-21T10:48:11;98444.81;;;10.74;66.21
9187;BME280;7273;48.902;9.410;2024-02-21T10:51:35;98440.50;;;10.83;67.48
9187;BME280;7273;48.902;9.410;2024-02-21T10:53:44;98440.81;;;11.07;69.02
9187;BME280;7273;48.902;9.410;2024-02-21T10:56:30;98422.13;;;11.11;68.61
9187;BME280;7273;48.902;9.410;2024-02-21T10:59:00;98425.91;;;11.20;69.16
9187;BME280;7273;48.902;9.410;2024-02-21T11:01:26;98414.00;;;11.11;67.20
9187;BME280;7273;48.902;9.410;2024-02-21T11:03:56;98411.31;;;11.31;68.64
9187;BME280;7273;48.902;9.410;2024-02-21T11:06:24;98400.19;;;11.37;68.13
9187;BME280;7273;48.902;9.410;2024-02-21T11:09:03;98399.91;;;11.44;67.61
9187;BME280;7273;48.902;9.410;2024-02-21T11:11:33;98393.09;;;11.61;69.18
9187;BME280;7273;48.902;9.410;2024-02-21T11:14:17;98388.22;;;11.73;69.33
9187;BME280;7273;48.902;9.410;2024-02-21T11:16:43;98374.59;;;11.88;69.93
9187;BME280;7273;48.902;9.410;2024-02-21T11:19:29;98372.09;;;12.02;68.99
9187;BME280;7273;48.902;9.410;2024-02-21T11:21:56;98365.28;;;12.09;69.59
9187;BME280;7273;48.902;9.410;2024-02-21T11:24:32;98363.09;;;12.11;69.43
9187;BME280;7273;48.902;9.410;2024-02-21T11:29:47;98364.44;;;12.19;69.71
9187;BME280;7273;48.902;9.410;2024-02-21T11:32:16;98348.75;;;12.11;68.93
9187;BME280;7273;48.902;9.410;2024-02-21T11:34:59;98331.41;;;12.12;68.27
9187;BME280;7273;48.902;9.410;2024-02-21T11:37:27;98333.84;;;12.08;68.20
9187;BME280;7273;48.902;9.410;2024-02-21T11:39:54;98340.66;;;12.06;68.58
9187;BME280;7273;48.902;9.410;2024-02-21T11:42:19;98338.78;;;11.96;66.67
9187;BME280;7273;48.902;9.410;2024-02-21T11:44:45;98328.72;;;12.07;68.21
9187;BME280;7273;48.902;9.410;2024-02-21T11:47:11;98325.19;;;12.06;67.87
9187;BME280;7273;48.902;9.410;2024-02-21T11:49:45;98324.91;;;12.08;68.58
9187;BME280;7273;48.902;9.410;2024-02-21T11:52:11;98312.69;;;12.15;69.40
9187;BME280;7273;48.902;9.410;2024-02-21T11:54:37;98306.13;;;12.22;68.94
9187;BME280;7273;48.902;9.410;2024-02-21T11:57:02;98298.22;;;12.30;68.86
9187;BME280;7273;48.902;9.410;2024-02-21T11:59:33;98293.09;;;12.24;69.14
9187;BME280;7273;48.902;9.410;2024-02-21T12:02:01;98288.47;;;12.29;69.12
9187;BME280;7273;48.902;9.410;2024-02-21T12:04:31;98287.03;;;12.37;68.99
9187;BME280;7273;48.902;9.410;2024-02-21T12:06:57;98284.78;;;12.49;68.66
9187;BME280;7273;48.902;9.410;2024-02-21T12:09:24;98272.56;;;12.51;68.59
9187;BME280;7273;48.902;9.410;2024-02-21T12:12:00;98273.91;;;12.54;68.30
9187;BME280;7273;48.902;9.410;2024-02-21T12:14:27;98269.50;;;12.58;67.72
9187;BME280;7273;48.902;9.410;2024-02-21T12:16:54;98264.09;;;12.58;67.69
9187;BME280;7273;48.902;9.410;2024-02-21T12:19:20;98261.13;;;12.54;67.44
9187;BME280;7273;48.902;9.410;2024-02-21T12:21:45;98252.25;;;12.49;67.17
9187;BME280;7273;48.902;9.410;2024-02-21T12:24:27;98253.59;;;12.46;67.31
9187;BME280;7273;48.902;9.410;2024-02-21T12:26:53;98243.78;;;12.55;67.54
9187;BME280;7273;48.902;9.410;2024-02-21T12:29:20;98242.78;;;12.41;68.04
9187;BME280;7273;48.902;9.410;2024-02-21T12:31:45;98232.50;;;12.38;66.37
9187;BME280;7273;48.902;9.410;2024-02-21T12:34:11;98224.91;;;12.40;67.38
9187;BME280;7273;48.902;9.410;2024-02-21T12:36:41;98230.13;;;12.32;67.50
9187;BME280;7273;48.902;9.410;2024-02-21T12:39:10;98218.91;;;12.43;67.55
9187;BME280;7273;48.902;9.410;2024-02-21T12:41:36;98221.28;;;12.50;67.66
9187;BME280;7273;48.902;9.410;2024-02-21T12:44:07;98211.56;;;12.49;67.69
9187;BME280;7273;48.902;9.410;2024-02-21T12:46:35;98208.56;;;12.50;68.24
9187;BME280;7273;48.902;9.410;2024-02-21T12:49:02;98197.69;;;12.50;67.07
9187;BME280;7273;48.902;9.410;2024-02-21T12:51:28;98197.69;;;12.50;67.47
9187;BME280;7273;48.902;9.410;2024-02-21T12:53:55;98194.75;;;12.47;66.48
9187;BME280;7273;48.902;9.410;2024-02-21T12:56:20;98175.13;;;12.55;66.92
9187;BME280;7273;48.902;9.410;2024-02-21T12:58:46;98171.84;;;12.58;66.95
9187;BME280;7273;48.902;9.410;2024-02-21T13:01:11;98162.69;;;12.54;66.73
9187;BME280;7273;48.902;9.410;2024-02-21T13:03:37;98158.31;;;12.53;66.22
9187;BME280;7273;48.902;9.410;2024-02-21T13:06:03;98160.16;;;12.57;66.89
9187;BME280;7273;48.902;9.410;2024-02-21T13:08:29;98155.56;;;12.58;66.86
9187;BME280;7273;48.902;9.410;2024-02-21T13:10:54;98154.97;;;12.61;66.60
9187;BME280;7273;48.902;9.410;2024-02-21T13:13:19;98140.63;;;12.60;66.39
9187;BME280;7273;48.902;9.410;2024-02-21T13:15:45;98129.94;;;12.69;66.71
9187;BME280;7273;48.902;9.410;2024-02-21T13:18:10;98125.91;;;12.66;66.83
9187;BME280;7273;48.902;9.410;2024-02-21T13:20:37;98122.03;;;12.72;66.69
9187;BME280;7273;48.902;9.410;2024-02-21T13:23:03;98123.94;;;12.72;66.97
9187;BME280;7273;48.902;9.410;2024-02-21T13:25:29;98117.66;;;12.76;66.60
9187;BME280;7273;48.902;9.410;2024-02-21T13:27:54;98107.88;;;12.75;66.85
9187;BME280;7273;48.902;9.410;2024-02-21T13:30:21;98102.69;;;12.79;66.86
9187;BME280;7273;48.902;9.410;2024-02-21T13:32:47;98105.47;;;12.74;66.82